sensor_id;sensor_type;location;lat;lon;timestamp;P1;durP1;ratioP1;P2;durP2;ratioP2
31128;SDS011;17777;48.770;8.944;2024-03-22T00:01:41;8.68;;;5.03;;
31128;SDS011;17777;48.770;8.944;2024-03-22T00:04:06;7.75;;;5.55;;
31128;SDS011;17777;48.770;8.944;2024-03-22T00:06:32;6.82;;;5.20;;
31128;SDS011;17777;48.770;8.944;2024-03-22T00:08:58;5.78;;;4.70;;
31128;SDS011;17777;48.770;8.944;2024-03-22T00:11:24;6.57;;;4.82;;
31128;SDS011;17777;48.770;8.944;2024-03-22T00:13:50;7.03;;;5.43;;
31128;SDS011;17777;48.770;8.944;2024-03-22T00:16:16;6.50;;;4.75;;
31128;SDS011;17777;48.770;8.944;2024-03-22T00:18:41;7.00;;;5.15;;
31128;SDS011;17777;48.770;8.944;2024-03-22T00:21:07;7.80;;;5.68;;
31128;SDS011;17777;48.770;8.944;2024-03-22T00:23:33;8.90;;;5.75;;
31128;SDS011;17777;48.770;8.944;2024-03-22T00:25:59;6.03;;;5.03;;
31128;SDS011;17777;48.770;8.944;2024-03-22T00:28:25;8.43;;;5.65;;
31128;SDS011;17777;48.770;8.944;2024-03-22T00:30:50;6.03;;;5.10;;
31128;SDS011;17777;48.770;8.944;2024-03-22T00:33:16;6.07;;;5.18;;
31128;SDS011;17777;48.770;8.944;2024-03-22T00:35:42;6.38;;;5.30;;
31128;SDS011;17777;48.770;8.944;2024-03-22T00:38:08;14.45;;;5.25;;
31128;SDS011;17777;48.770;8.944;2024-03-22T00:40:33;6.32;;;5.45;;
31128;SDS011;17777;48.770;8.944;2024-03-22T00:42:59;6.57;;;4.97;;
31128;SDS011;17777;48.770;8.944;2024-03-22T00:45:25;7.60;;;5.07;;
31128;SDS011;17777;48.770;8.944;2024-03-22T00:47:51;8.30;;;5.15;;
31128;SDS011;17777;48.770;8.944;2024-03-22T00:50:17;7.85;;;4.50;;
31128;SDS011;17777;48.770;8.944;2024-03-22T00:52:43;5.88;;;4.68;;
31128;SDS011;17777;48.770;8.944;2024-03-22T00:55:08;6.78;;;4.90;;
31128;SDS011;17777;48.770;8.944;2024-03-22T00:57:34;4.55;;;4.13;;
31128;SDS011;17777;48.770;8.944;2024-03-22T01:00:00;7.18;;;4.57;;
31128;SDS011;17777;48.770;8.944;2024-03-22T01:02:25;6.22;;;4.50;;
31128;SDS011;17777;48.770;8.944;2024-03-22T01:04:51;6.63;;;4.75;;
31128;SDS011;17777;48.770;8.944;2024-03-22T01:07:17;6.50;;;4.85;;
31128;SDS011;17777;48.770;8.944;2024-03-22T01:09:43;6.63;;;5.45;;
31128;SDS011;17777;48.770;8.944;2024-03-22T01:12:09;6.53;;;4.95;;
31128;SDS011;17777;48.770;8.944;2024-03-22T01:14:35;5.80;;;4.53;;
31128;SDS011;17777;48.770;8.944;2024-03-22T01:17:01;7.30;;;4.53;;
31128;SDS011;17777;48.770;8.944;2024-03-22T01:19:27;5.03;;;4.45;;
31128;SDS011;17777;48.770;8.944;2024-03-22T01:21:53;5.00;;;4.25;;
31128;SDS011;17777;48.770;8.944;2024-03-22T01:24:19;6.45;;;4.30;;
31128;SDS011;17777;48.770;8.944;2024-03-22T01:26:45;4.60;;;4.07;;
31128;SDS011;17777;48.770;8.944;2024-03-22T01:29:10;4.95;;;4.38;;
31128;SDS011;17777;48.770;8.944;2024-03-22T01:31:36;5.55;;;4.32;;
31128;SDS011;17777;48.770;8.944;2024-03-22T01:34:02;7.15;;;4.10;;
31128;SDS011;17777;48.770;8.944;2024-03-22T01:36:28;5.13;;;4.15;;
31128;SDS011;17777;48.770;8.944;2024-03-22T01:38:53;7.78;;;4.05;;
31128;SDS011;17777;48.770;8.944;2024-03-22T01:41:19;5.53;;;4.28;;
31128;SDS011;17777;48.770;8.944;2024-03-22T01:43:45;5.40;;;4.07;;
31128;SDS011;17777;48.770;8.944;2024-03-22T01:46:10;6.03;;;4.30;;
31128;SDS011;17777;48.770;8.944;2024-03-22T01:48:36;5.13;;;4.55;;
31128;SDS011;17777;48.770;8.944;2024-03-22T01:51:02;5.00;;;4.50;;
31128;SDS011;17777;48.770;8.944;2024-03-22T01:53:30;9.15;;;4.95;;
31128;SDS011;17777;48.770;8.944;2024-03-22T01:55:57;6.63;;;4.75;;
31128;SDS011;17777;48.770;8.944;2024-03-22T01:58:23;5.65;;;4.20;;
31128;SDS011;17777;48.770;8.944;2024-03-22T02:00:49;5.85;;;4.78;;
31128;SDS011;17777;48.770;8.944;2024-03-22T02:03:15;4.93;;;4.43;;
31128;SDS011;17777;48.770;8.944;2024-03-22T02:05:41;5.15;;;4.40;;
31128;SDS011;17777;48.770;8.944;2024-03-22T02:08:07;6.38;;;4.72;;
31128;SDS011;17777;48.770;8.944;2024-03-22T02:10:32;6.07;;;4.68;;
31128;SDS011;17777;48.770;8.944;2024-03-22T02:12:58;5.35;;;4.30;;
31128;SDS011;17777;48.770;8.944;2024-03-22T02:15:24;5.53;;;4.65;;
31128;SDS011;17777;48.770;8.944;2024-03-22T02:17:50;5.03;;;4.07;;
31128;SDS011;17777;48.770;8.944;2024-03-22T02:20:15;4.70;;;4.07;;
31128;SDS011;17777;48.770;8.944;2024-03-22T02:22:41;4.85;;;4.13;;
31128;SDS011;17777;48.770;8.944;2024-03-22T02:25:07;4.88;;;4.10;;
31128;SDS011;17777;48.770;8.944;2024-03-22T02:27:33;3.60;;;3.25;;
31128;SDS011;17777;48.770;8.944;2024-03-22T02:30:00;4.57;;;4.07;;
31128;SDS011;17777;48.770;8.944;2024-03-22T02:32:26;4.15;;;3.70;;
31128;SDS011;17777;48.770;8.944;2024-03-22T02:34:52;6.65;;;4.30;;
31128;SDS011;17777;48.770;8.944;2024-03-22T02:37:18;8.23;;;3.88;;
31128;SDS011;17777;48.770;8.944;2024-03-22T02:39:44;7.07;;;3.95;;
31128;SDS011;17777;48.770;8.944;2024-03-22T02:42:10;6.80;;;4.05;;
31128;SDS011;17777;48.770;8.944;2024-03-22T02:44:35;4.63;;;3.97;;
31128;SDS011;17777;48.770;8.944;2024-03-22T02:47:07;11.48;;;4.47;;
31128;SDS011;17777;48.770;8.944;2024-03-22T02:49:37;5.50;;;4.40;;
31128;SDS011;17777;48.770;8.944;2024-03-22T02:52:04;4.78;;;3.78;;
31128;SDS011;17777;48.770;8.944;2024-03-22T02:54:30;7.38;;;4.65;;
31128;SDS011;17777;48.770;8.944;2024-03-22T02:56:56;6.40;;;4.45;;
31128;SDS011;17777;48.770;8.944;2024-03-22T02:59:21;4.60;;;3.97;;
31128;SDS011;17777;48.770;8.944;2024-03-22T03:01:51;3.97;;;3.35;;
31128;SDS011;17777;48.770;8.944;2024-03-22T03:04:17;6.28;;;4.13;;
31128;SDS011;17777;48.770;8.944;2024-03-22T03:06:45;5.38;;;4.25;;
31128;SDS011;17777;48.770;8.944;2024-03-22T03:09:11;4.78;;;4.28;;
31128;SDS011;17777;48.770;8.944;2024-03-22T03:11:40;4.90;;;4.05;;
31128;SDS011;17777;48.770;8.944;2024-03-22T03:14:06;6.40;;;4.18;;
31128;SDS011;17777;48.770;8.944;2024-03-22T03:16:32;4.25;;;3.85;;
31128;SDS011;17777;48.770;8.944;2024-03-22T03:18:58;6.28;;;4.38;;
31128;SDS011;17777;48.770;8.944;2024-03-22T03:21:24;6.07;;;4.78;;
31128;SDS011;17777;48.770;8.944;2024-03-22T03:23:50;6.05;;;5.10;;
31128;SDS011;17777;48.770;8.944;2024-03-22T03:26:15;5.72;;;4.65;;
31128;SDS011;17777;48.770;8.944;2024-03-22T03:28:41;5.07;;;4.32;;
31128;SDS011;17777;48.770;8.944;2024-03-22T03:31:07;5.22;;;4.18;;
31128;SDS011;17777;48.770;8.944;2024-03-22T03:33:33;5.47;;;4.72;;
31128;SDS011;17777;48.770;8.944;2024-03-22T03:35:58;5.25;;;4.22;;
31128;SDS011;17777;48.770;8.944;2024-03-22T03:38:24;4.72;;;4.07;;
31128;SDS011;17777;48.770;8.944;2024-03-22T03:40:50;4.40;;;3.75;;
31128;SDS011;17777;48.770;8.944;2024-03-22T03:43:16;7.80;;;4.10;;
31128;SDS011;17777;48.770;8.944;2024-03-22T03:45:41;7.10;;;4.65;;
31128;SDS011;17777;48.770;8.944;2024-03-22T03:48:07;5.75;;;4.25;;
31128;SDS011;17777;48.770;8.944;2024-03-22T03:50:33;6.65;;;4.43;;
31128;SDS011;17777;48.770;8.944;2024-03-22T03:52:59;7.05;;;4.38;;
31128;SDS011;17777;48.770;8.944;2024-03-22T03:55:24;5.78;;;4.38;;
31128;SDS011;17777;48.770;8.944;2024-03-22T03:57:51;5.22;;;4.20;;
31128;SDS011;17777;48.770;8.944;2024-03-22T04:00:18;5.97;;;4.25;;
31128;SDS011;17777;48.770;8.944;2024-03-22T04:02:45;4.20;;;3.80;;
31128;SDS011;17777;48.770;8.944;2024-03-22T04:05:10;5.75;;;4.20;;
31128;SDS011;17777;48.770;8.944;2024-03-22T04:07:36;5.88;;;4.80;;
31128;SDS011;17777;48.770;8.944;2024-03-22T04:10:04;7.65;;;4.50;;
31128;SDS011;17777;48.770;8.944;2024-03-22T04:12:31;5.88;;;4.35;;
31128;SDS011;17777;48.770;8.944;2024-03-22T04:14:57;5.15;;;3.92;;
31128;SDS011;17777;48.770;8.944;2024-03-22T04:17:22;5.70;;;4.10;;
31128;SDS011;17777;48.770;8.944;2024-03-22T04:19:49;4.10;;;3.70;;
31128;SDS011;17777;48.770;8.944;2024-03-22T04:22:15;6.88;;;4.05;;
31128;SDS011;17777;48.770;8.944;2024-03-22T04:24:41;4.68;;;4.00;;
31128;SDS011;17777;48.770;8.944;2024-03-22T04:27:06;4.57;;;3.80;;
31128;SDS011;17777;48.770;8.944;2024-03-22T04:29:32;5.28;;;4.50;;
31128;SDS011;17777;48.770;8.944;2024-03-22T04:31:58;4.78;;;4.10;;
31128;SDS011;17777;48.770;8.944;2024-03-22T04:34:24;5.38;;;4.07;;
31128;SDS011;17777;48.770;8.944;2024-03-22T04:36:50;4.97;;;3.80;;
31128;SDS011;17777;48.770;8.944;2024-03-22T04:39:17;5.18;;;3.88;;
31128;SDS011;17777;48.770;8.944;2024-03-22T04:41:45;4.43;;;4.03;;
31128;SDS011;17777;48.770;8.944;2024-03-22T04:44:11;5.07;;;4.10;;
31128;SDS011;17777;48.770;8.944;2024-03-22T04:46:37;7.50;;;3.97;;
31128;SDS011;17777;48.770;8.944;2024-03-22T04:49:02;4.82;;;3.63;;
31128;SDS011;17777;48.770;8.944;2024-03-22T04:51:28;5.47;;;4.05;;
31128;SDS011;17777;48.770;8.944;2024-03-22T04:53:54;7.35;;;4.32;;
31128;SDS011;17777;48.770;8.944;2024-03-22T04:56:20;5.10;;;4.10;;
31128;SDS011;17777;48.770;8.944;2024-03-22T04:58:46;6.97;;;3.95;;
31128;SDS011;17777;48.770;8.944;2024-03-22T05:01:12;5.10;;;4.28;;
31128;SDS011;17777;48.770;8.944;2024-03-22T05:03:38;5.15;;;4.22;;
31128;SDS011;17777;48.770;8.944;2024-03-22T05:06:06;4.80;;;4.25;;
31128;SDS011;17777;48.770;8.944;2024-03-22T05:08:32;6.03;;;4.15;;
31128;SDS011;17777;48.770;8.944;2024-03-22T05:10:58;4.93;;;4.30;;
31128;SDS011;17777;48.770;8.944;2024-03-22T05:13:24;4.85;;;3.92;;
31128;SDS011;17777;48.770;8.944;2024-03-22T05:15:49;4.43;;;3.85;;
31128;SDS011;17777;48.770;8.944;2024-03-22T05:18:15;4.30;;;3.65;;
31128;SDS011;17777;48.770;8.944;2024-03-22T05:20:41;6.45;;;3.95;;
31128;SDS011;17777;48.770;8.944;2024-03-22T05:23:07;5.03;;;3.88;;
31128;SDS011;17777;48.770;8.944;2024-03-22T05:25:32;4.55;;;3.75;;
31128;SDS011;17777;48.770;8.944;2024-03-22T05:27:58;5.78;;;4.38;;
31128;SDS011;17777;48.770;8.944;2024-03-22T05:30:24;5.22;;;4.15;;
31128;SDS011;17777;48.770;8.944;2024-03-22T05:32:50;6.38;;;4.28;;
31128;SDS011;17777;48.770;8.944;2024-03-22T05:35:15;5.03;;;4.50;;
31128;SDS011;17777;48.770;8.944;2024-03-22T05:37:41;5.32;;;4.50;;
31128;SDS011;17777;48.770;8.944;2024-03-22T05:40:07;6.35;;;4.68;;
31128;SDS011;17777;48.770;8.944;2024-03-22T05:42:34;6.93;;;4.32;;
31128;SDS011;17777;48.770;8.944;2024-03-22T05:45:00;7.05;;;5.00;;
31128;SDS011;17777;48.770;8.944;2024-03-22T05:47:26;5.15;;;3.90;;
31128;SDS011;17777;48.770;8.944;2024-03-22T05:49:52;5.07;;;4.03;;
31128;SDS011;17777;48.770;8.944;2024-03-22T05:52:18;4.65;;;4.03;;
31128;SDS011;17777;48.770;8.944;2024-03-22T05:54:43;4.28;;;3.75;;
31128;SDS011;17777;48.770;8.944;2024-03-22T05:57:09;4.93;;;3.65;;
31128;SDS011;17777;48.770;8.944;2024-03-22T05:59:36;6.00;;;4.30;;
31128;SDS011;17777;48.770;8.944;2024-03-22T06:02:02;4.97;;;3.72;;
31128;SDS011;17777;48.770;8.944;2024-03-22T06:04:27;5.82;;;4.10;;
31128;SDS011;17777;48.770;8.944;2024-03-22T06:06:53;5.82;;;4.15;;
31128;SDS011;17777;48.770;8.944;2024-03-22T06:09:19;6.10;;;4.28;;
31128;SDS011;17777;48.770;8.944;2024-03-22T06:12:14;4.72;;;3.80;;
31128;SDS011;17777;48.770;8.944;2024-03-22T06:14:41;6.07;;;4.10;;
31128;SDS011;17777;48.770;8.944;2024-03-22T06:17:11;6.22;;;4.38;;
31128;SDS011;17777;48.770;8.944;2024-03-22T06:19:37;4.28;;;3.40;;
31128;SDS011;17777;48.770;8.944;2024-03-22T06:22:03;4.80;;;3.60;;
31128;SDS011;17777;48.770;8.944;2024-03-22T06:24:29;5.40;;;3.83;;
31128;SDS011;17777;48.770;8.944;2024-03-22T06:26:55;7.18;;;4.07;;
31128;SDS011;17777;48.770;8.944;2024-03-22T06:29:21;5.88;;;4.18;;
31128;SDS011;17777;48.770;8.944;2024-03-22T06:31:47;5.13;;;4.47;;
31128;SDS011;17777;48.770;8.944;2024-03-22T06:34:13;5.72;;;4.63;;
31128;SDS011;17777;48.770;8.944;2024-03-22T06:36:38;6.13;;;4.50;;
31128;SDS011;17777;48.770;8.944;2024-03-22T06:39:04;7.40;;;4.65;;
31128;SDS011;17777;48.770;8.944;2024-03-22T06:41:32;5.43;;;4.20;;
31128;SDS011;17777;48.770;8.944;2024-03-22T06:43:59;4.97;;;4.10;;
31128;SDS011;17777;48.770;8.944;2024-03-22T06:46:25;6.68;;;4.18;;
31128;SDS011;17777;48.770;8.944;2024-03-22T06:48:51;6.95;;;4.95;;
31128;SDS011;17777;48.770;8.944;2024-03-22T06:51:18;6.57;;;4.43;;
31128;SDS011;17777;48.770;8.944;2024-03-22T06:53:43;6.70;;;4.55;;
31128;SDS011;17777;48.770;8.944;2024-03-22T06:56:11;7.85;;;4.35;;
31128;SDS011;17777;48.770;8.944;2024-03-22T06:58:37;7.93;;;4.13;;
31128;SDS011;17777;48.770;8.944;2024-03-22T07:01:06;8.60;;;5.18;;
31128;SDS011;17777;48.770;8.944;2024-03-22T07:03:31;8.10;;;4.75;;
31128;SDS011;17777;48.770;8.944;2024-03-22T07:05:58;7.85;;;5.25;;
31128;SDS011;17777;48.770;8.944;2024-03-22T07:08:24;10.00;;;4.90;;
31128;SDS011;17777;48.770;8.944;2024-03-22T07:10:53;5.47;;;4.25;;
31128;SDS011;17777;48.770;8.944;2024-03-22T07:13:19;5.82;;;4.63;;
31128;SDS011;17777;48.770;8.944;2024-03-22T07:15:46;8.77;;;4.47;;
31128;SDS011;17777;48.770;8.944;2024-03-22T07:18:13;6.07;;;4.18;;
31128;SDS011;17777;48.770;8.944;2024-03-22T07:20:39;5.63;;;4.22;;
31128;SDS011;17777;48.770;8.944;2024-03-22T07:23:07;8.20;;;5.13;;
31128;SDS011;17777;48.770;8.944;2024-03-22T07:25:33;11.15;;;4.43;;
31128;SDS011;17777;48.770;8.944;2024-03-22T07:27:58;8.90;;;4.30;;
31128;SDS011;17777;48.770;8.944;2024-03-22T07:30:24;7.53;;;4.88;;
31128;SDS011;17777;48.770;8.944;2024-03-22T07:32:50;6.25;;;4.60;;
31128;SDS011;17777;48.770;8.944;2024-03-22T07:35:16;4.85;;;3.78;;
31128;SDS011;17777;48.770;8.944;2024-03-22T07:37:42;5.72;;;3.95;;
31128;SDS011;17777;48.770;8.944;2024-03-22T07:40:08;6.15;;;3.78;;
31128;SDS011;17777;48.770;8.944;2024-03-22T07:42:34;5.60;;;3.70;;
31128;SDS011;17777;48.770;8.944;2024-03-22T07:44:59;6.93;;;3.67;;
31128;SDS011;17777;48.770;8.944;2024-03-22T07:47:25;6.65;;;4.05;;
31128;SDS011;17777;48.770;8.944;2024-03-22T07:49:51;5.22;;;4.10;;
31128;SDS011;17777;48.770;8.944;2024-03-22T07:52:17;5.65;;;4.22;;
31128;SDS011;17777;48.770;8.944;2024-03-22T07:54:43;4.63;;;3.75;;
31128;SDS011;17777;48.770;8.944;2024-03-22T07:57:08;7.90;;;4.13;;
31128;SDS011;17777;48.770;8.944;2024-03-22T07:59:35;4.70;;;3.78;;
31128;SDS011;17777;48.770;8.944;2024-03-22T08:02:01;6.25;;;4.05;;
31128;SDS011;17777;48.770;8.944;2024-03-22T08:04:28;7.93;;;3.58;;
31128;SDS011;17777;48.770;8.944;2024-03-22T08:06:54;6.63;;;4.22;;
31128;SDS011;17777;48.770;8.944;2024-03-22T08:09:20;5.22;;;3.88;;
31128;SDS011;17777;48.770;8.944;2024-03-22T08:11:46;7.95;;;4.50;;
31128;SDS011;17777;48.770;8.944;2024-03-22T08:14:13;4.28;;;3.35;;
31128;SDS011;17777;48.770;8.944;2024-03-22T08:16:38;7.05;;;3.80;;
31128;SDS011;17777;48.770;8.944;2024-03-22T08:19:04;9.02;;;3.70;;
31128;SDS011;17777;48.770;8.944;2024-03-22T08:21:30;4.95;;;3.33;;
31128;SDS011;17777;48.770;8.944;2024-03-22T08:23:56;5.65;;;3.28;;
31128;SDS011;17777;48.770;8.944;2024-03-22T08:26:21;10.15;;;4.15;;
31128;SDS011;17777;48.770;8.944;2024-03-22T08:28:47;5.05;;;3.53;;
31128;SDS011;17777;48.770;8.944;2024-03-22T08:31:13;8.52;;;3.67;;
31128;SDS011;17777;48.770;8.944;2024-03-22T08:33:40;6.90;;;4.03;;
31128;SDS011;17777;48.770;8.944;2024-03-22T08:36:06;4.60;;;3.40;;
31128;SDS011;17777;48.770;8.944;2024-03-22T08:38:32;7.72;;;3.70;;
31128;SDS011;17777;48.770;8.944;2024-03-22T08:40:58;6.15;;;4.00;;
31128;SDS011;17777;48.770;8.944;2024-03-22T08:43:24;5.90;;;3.80;;
31128;SDS011;17777;48.770;8.944;2024-03-22T08:45:54;5.95;;;3.80;;
31128;SDS011;17777;48.770;8.944;2024-03-22T08:48:20;6.20;;;4.20;;
31128;SDS011;17777;48.770;8.944;2024-03-22T08:50:46;5.68;;;4.05;;
31128;SDS011;17777;48.770;8.944;2024-03-22T08:53:12;4.95;;;3.72;;
31128;SDS011;17777;48.770;8.944;2024-03-22T08:55:38;5.50;;;4.03;;
31128;SDS011;17777;48.770;8.944;2024-03-22T08:58:10;6.43;;;4.13;;
31128;SDS011;17777;48.770;8.944;2024-03-22T09:00:36;6.22;;;3.70;;
31128;SDS011;17777;48.770;8.944;2024-03-22T09:03:03;5.95;;;3.92;;
31128;SDS011;17777;48.770;8.944;2024-03-22T09:05:29;5.97;;;3.97;;
31128;SDS011;17777;48.770;8.944;2024-03-22T09:07:55;7.07;;;3.65;;
31128;SDS011;17777;48.770;8.944;2024-03-22T09:10:22;5.00;;;3.33;;
31128;SDS011;17777;48.770;8.944;2024-03-22T09:12:47;4.20;;;3.65;;
31128;SDS011;17777;48.770;8.944;2024-03-22T09:15:13;4.88;;;3.88;;
31128;SDS011;17777;48.770;8.944;2024-03-22T09:17:39;5.80;;;3.58;;
31128;SDS011;17777;48.770;8.944;2024-03-22T09:20:05;4.43;;;3.42;;
31128;SDS011;17777;48.770;8.944;2024-03-22T09:22:32;7.05;;;3.72;;
31128;SDS011;17777;48.770;8.944;2024-03-22T09:24:59;3.63;;;3.17;;
31128;SDS011;17777;48.770;8.944;2024-03-22T09:27:25;3.72;;;2.53;;
31128;SDS011;17777;48.770;8.944;2024-03-22T09:29:50;3.20;;;2.53;;
31128;SDS011;17777;48.770;8.944;2024-03-22T09:32:17;4.60;;;2.63;;
31128;SDS011;17777;48.770;8.944;2024-03-22T09:34:43;3.15;;;2.22;;
31128;SDS011;17777;48.770;8.944;2024-03-22T09:37:09;3.28;;;2.70;;
31128;SDS011;17777;48.770;8.944;2024-03-22T09:39:35;2.97;;;2.20;;
31128;SDS011;17777;48.770;8.944;2024-03-22T09:42:01;3.90;;;2.22;;
31128;SDS011;17777;48.770;8.944;2024-03-22T09:44:31;3.83;;;2.28;;
31128;SDS011;17777;48.770;8.944;2024-03-22T09:46:58;4.70;;;2.20;;
31128;SDS011;17777;48.770;8.944;2024-03-22T09:49:25;4.72;;;2.05;;
31128;SDS011;17777;48.770;8.944;2024-03-22T09:51:51;3.35;;;2.08;;
31128;SDS011;17777;48.770;8.944;2024-03-22T09:54:18;3.22;;;2.13;;
31128;SDS011;17777;48.770;8.944;2024-03-22T09:56:43;3.42;;;1.88;;
31128;SDS011;17777;48.770;8.944;2024-03-22T09:59:12;4.20;;;2.30;;
31128;SDS011;17777;48.770;8.944;2024-03-22T10:01:38;3.15;;;1.83;;
31128;SDS011;17777;48.770;8.944;2024-03-22T10:04:06;2.10;;;1.90;;
31128;SDS011;17777;48.770;8.944;2024-03-22T10:06:34;3.15;;;1.85;;
31128;SDS011;17777;48.770;8.944;2024-03-22T10:09:00;3.05;;;1.92;;
31128;SDS011;17777;48.770;8.944;2024-03-22T10:11:27;3.22;;;2.08;;
31128;SDS011;17777;48.770;8.944;2024-03-22T10:13:53;5.88;;;2.35;;
31128;SDS011;17777;48.770;8.944;2024-03-22T10:16:20;2.00;;;1.83;;
31128;SDS011;17777;48.770;8.944;2024-03-22T10:18:47;2.75;;;2.22;;
31128;SDS011;17777;48.770;8.944;2024-03-22T10:21:16;5.70;;;2.40;;
31128;SDS011;17777;48.770;8.944;2024-03-22T10:23:43;2.15;;;1.92;;
31128;SDS011;17777;48.770;8.944;2024-03-22T10:26:12;2.20;;;2.00;;
31128;SDS011;17777;48.770;8.944;2024-03-22T10:28:43;2.30;;;1.90;;
31128;SDS011;17777;48.770;8.944;2024-03-22T10:31:11;2.08;;;1.70;;
31128;SDS011;17777;48.770;8.944;2024-03-22T10:33:38;2.45;;;1.83;;
31128;SDS011;17777;48.770;8.944;2024-03-22T10:36:05;2.75;;;1.70;;
31128;SDS011;17777;48.770;8.944;2024-03-22T10:38:32;3.38;;;1.77;;
31128;SDS011;17777;48.770;8.944;2024-03-22T10:41:01;2.15;;;1.27;;
31128;SDS011;17777;48.770;8.944;2024-03-22T10:43:28;1.50;;;1.33;;
31128;SDS011;17777;48.770;8.944;2024-03-22T10:45:54;3.50;;;1.45;;
31128;SDS011;17777;48.770;8.944;2024-03-22T10:48:31;2.75;;;1.48;;
31128;SDS011;17777;48.770;8.944;2024-03-22T10:50:59;3.45;;;2.00;;
31128;SDS011;17777;48.770;8.944;2024-03-22T10:53:27;2.50;;;2.00;;
31128;SDS011;17777;48.770;8.944;2024-03-22T10:55:56;2.33;;;1.52;;
31128;SDS011;17777;48.770;8.944;2024-03-22T10:58:25;2.25;;;1.92;;
31128;SDS011;17777;48.770;8.944;2024-03-22T11:00:51;4.38;;;1.65;;
31128;SDS011;17777;48.770;8.944;2024-03-22T11:03:20;1.90;;;1.58;;
31128;SDS011;17777;48.770;8.944;2024-03-22T11:05:53;2.55;;;1.67;;
31128;SDS011;17777;48.770;8.944;2024-03-22T11:08:29;3.42;;;1.52;;
31128;SDS011;17777;48.770;8.944;2024-03-22T11:11:08;1.67;;;1.38;;
31128;SDS011;17777;48.770;8.944;2024-03-22T11:13:41;1.80;;;1.38;;
31128;SDS011;17777;48.770;8.944;2024-03-22T11:16:07;1.50;;;1.40;;
31128;SDS011;17777;48.770;8.944;2024-03-22T11:18:35;2.45;;;1.60;;
31128;SDS011;17777;48.770;8.944;2024-03-22T11:21:01;1.25;;;1.15;;
31128;SDS011;17777;48.770;8.944;2024-03-22T11:23:28;1.55;;;1.45;;
31128;SDS011;17777;48.770;8.944;2024-03-22T11:25:54;4.35;;;1.75;;
31128;SDS011;17777;48.770;8.944;2024-03-22T11:28:19;2.30;;;1.40;;
31128;SDS011;17777;48.770;8.944;2024-03-22T11:30:46;1.88;;;1.50;;
31128;SDS011;17777;48.770;8.944;2024-03-22T11:33:12;1.65;;;1.45;;
31128;SDS011;17777;48.770;8.944;2024-03-22T11:35:38;2.55;;;1.50;;
31128;SDS011;17777;48.770;8.944;2024-03-22T11:38:04;2.10;;;1.40;;
31128;SDS011;17777;48.770;8.944;2024-03-22T11:40:30;2.22;;;1.30;;
31128;SDS011;17777;48.770;8.944;2024-03-22T11:42:58;1.98;;;1.10;;
31128;SDS011;17777;48.770;8.944;2024-03-22T11:45:25;3.95;;;1.40;;
31128;SDS011;17777;48.770;8.944;2024-03-22T11:47:52;2.70;;;1.10;;
31128;SDS011;17777;48.770;8.944;2024-03-22T11:50:18;1.27;;;1.10;;
31128;SDS011;17777;48.770;8.944;2024-03-22T11:52:44;1.15;;;1.05;;
31128;SDS011;17777;48.770;8.944;2024-03-22T11:55:14;2.85;;;1.30;;
31128;SDS011;17777;48.770;8.944;2024-03-22T11:57:40;2.58;;;1.52;;
31128;SDS011;17777;48.770;8.944;2024-03-22T12:00:06;2.40;;;1.50;;
31128;SDS011;17777;48.770;8.944;2024-03-22T12:02:40;1.40;;;1.30;;
31128;SDS011;17777;48.770;8.944;2024-03-22T12:05:09;4.15;;;1.50;;
31128;SDS011;17777;48.770;8.944;2024-03-22T12:07:35;3.53;;;1.10;;
31128;SDS011;17777;48.770;8.944;2024-03-22T12:10:01;1.60;;;1.25;;
31128;SDS011;17777;48.770;8.944;2024-03-22T12:12:28;2.17;;;1.33;;
31128;SDS011;17777;48.770;8.944;2024-03-22T12:14:55;2.13;;;1.30;;
31128;SDS011;17777;48.770;8.944;2024-03-22T12:17:21;1.65;;;1.30;;
31128;SDS011;17777;48.770;8.944;2024-03-22T12:19:47;1.85;;;1.20;;
31128;SDS011;17777;48.770;8.944;2024-03-22T12:22:13;1.20;;;1.10;;
31128;SDS011;17777;48.770;8.944;2024-03-22T12:24:39;1.92;;;1.10;;
31128;SDS011;17777;48.770;8.944;2024-03-22T12:27:04;1.17;;;1.08;;
31128;SDS011;17777;48.770;8.944;2024-03-22T12:29:33;2.63;;;1.42;;
31128;SDS011;17777;48.770;8.944;2024-03-22T12:32:01;1.55;;;1.10;;
31128;SDS011;17777;48.770;8.944;2024-03-22T12:34:29;2.55;;;1.10;;
31128;SDS011;17777;48.770;8.944;2024-03-22T12:36:57;1.13;;;1.02;;
31128;SDS011;17777;48.770;8.944;2024-03-22T12:39:24;1.17;;;1.02;;
31128;SDS011;17777;48.770;8.944;2024-03-22T12:41:49;1.45;;;1.00;;
31128;SDS011;17777;48.770;8.944;2024-03-22T12:44:15;1.25;;;0.73;;
31128;SDS011;17777;48.770;8.944;2024-03-22T12:46:41;1.15;;;0.80;;
31128;SDS011;17777;48.770;8.944;2024-03-22T12:49:10;1.27;;;1.10;;
31128;SDS011;17777;48.770;8.944;2024-03-22T12:51:36;1.25;;;1.13;;
31128;SDS011;17777;48.770;8.944;2024-03-22T12:54:03;5.32;;;1.30;;
31128;SDS011;17777;48.770;8.944;2024-03-22T12:56:30;3.42;;;1.10;;
31128;SDS011;17777;48.770;8.944;2024-03-22T12:58:56;1.50;;;1.05;;
31128;SDS011;17777;48.770;8.944;2024-03-22T13:01:22;2.90;;;1.17;;
31128;SDS011;17777;48.770;8.944;2024-03-22T13:03:48;2.05;;;1.15;;
31128;SDS011;17777;48.770;8.944;2024-03-22T13:06:13;1.25;;;1.08;;
31128;SDS011;17777;48.770;8.944;2024-03-22T13:08:40;6.97;;;1.00;;
31128;SDS011;17777;48.770;8.944;2024-03-22T13:11:05;1.60;;;0.98;;
31128;SDS011;17777;48.770;8.944;2024-03-22T13:13:34;1.10;;;1.00;;
31128;SDS011;17777;48.770;8.944;2024-03-22T13:16:01;1.70;;;1.13;;
31128;SDS011;17777;48.770;8.944;2024-03-22T13:18:28;2.25;;;1.08;;
31128;SDS011;17777;48.770;8.944;2024-03-22T13:20:54;1.48;;;1.10;;
31128;SDS011;17777;48.770;8.944;2024-03-22T13:23:20;1.73;;;1.30;;
31128;SDS011;17777;48.770;8.944;2024-03-22T13:25:46;1.13;;;1.02;;
31128;SDS011;17777;48.770;8.944;2024-03-22T13:28:12;1.80;;;1.10;;
31128;SDS011;17777;48.770;8.944;2024-03-22T13:30:38;1.80;;;1.08;;
31128;SDS011;17777;48.770;8.944;2024-03-22T13:33:05;1.55;;;1.08;;
31128;SDS011;17777;48.770;8.944;2024-03-22T13:35:33;1.33;;;1.08;;
31128;SDS011;17777;48.770;8.944;2024-03-22T13:37:59;1.33;;;0.90;;
31128;SDS011;17777;48.770;8.944;2024-03-22T13:40:26;2.50;;;1.15;;
31128;SDS011;17777;48.770;8.944;2024-03-22T13:42:55;2.25;;;1.00;;
31128;SDS011;17777;48.770;8.944;2024-03-22T13:45:21;2.15;;;1.00;;
31128;SDS011;17777;48.770;8.944;2024-03-22T13:47:46;2.20;;;1.08;;
31128;SDS011;17777;48.770;8.944;2024-03-22T13:50:12;0.93;;;0.90;;
31128;SDS011;17777;48.770;8.944;2024-03-22T13:52:38;1.52;;;0.88;;
31128;SDS011;17777;48.770;8.944;2024-03-22T13:55:04;1.15;;;0.52;;
31128;SDS011;17777;48.770;8.944;2024-03-22T13:57:31;1.10;;;0.80;;
31128;SDS011;17777;48.770;8.944;2024-03-22T13:59:57;1.55;;;0.90;;
31128;SDS011;17777;48.770;8.944;2024-03-22T14:02:24;1.02;;;0.90;;
31128;SDS011;17777;48.770;8.944;2024-03-22T14:04:49;1.35;;;0.80;;
31128;SDS011;17777;48.770;8.944;2024-03-22T14:07:15;0.90;;;0.60;;
31128;SDS011;17777;48.770;8.944;2024-03-22T14:09:41;0.98;;;0.60;;
31128;SDS011;17777;48.770;8.944;2024-03-22T14:12:08;0.98;;;0.68;;
31128;SDS011;17777;48.770;8.944;2024-03-22T14:14:34;1.55;;;0.70;;
31128;SDS011;17777;48.770;8.944;2024-03-22T14:17:00;1.20;;;0.60;;
31128;SDS011;17777;48.770;8.944;2024-03-22T14:19:26;1.38;;;0.75;;
31128;SDS011;17777;48.770;8.944;2024-03-22T14:21:52;0.68;;;0.50;;
31128;SDS011;17777;48.770;8.944;2024-03-22T14:24:18;2.15;;;0.43;;
31128;SDS011;17777;48.770;8.944;2024-03-22T14:26:43;0.50;;;0.50;;
31128;SDS011;17777;48.770;8.944;2024-03-22T14:29:09;0.50;;;0.40;;
31128;SDS011;17777;48.770;8.944;2024-03-22T14:31:36;1.00;;;0.50;;
31128;SDS011;17777;48.770;8.944;2024-03-22T14:34:04;0.50;;;0.50;;
31128;SDS011;17777;48.770;8.944;2024-03-22T14:36:31;0.63;;;0.38;;
31128;SDS011;17777;48.770;8.944;2024-03-22T14:38:58;1.15;;;0.80;;
31128;SDS011;17777;48.770;8.944;2024-03-22T14:41:24;1.52;;;0.80;;
31128;SDS011;17777;48.770;8.944;2024-03-22T14:43:50;1.50;;;0.50;;